sensor_id;sensor_type;location;lat;lon;timestamp;temperature;humidity
52016;DHT22;38032;53.326;6.472;2022-09-09T00:01:08;16.00;99.90
52016;DHT22;38032;53.326;6.472;2022-09-09T00:03:47;16.00;99.90
52016;DHT22;38032;53.326;6.472;2022-09-09T00:06:27;16.00;99.90
52016;DHT22;38032;53.326;6.472;2022-09-09T00:09:02;16.00;99.90
52016;DHT22;38032;53.326;6.472;2022-09-09T00:11:40;15.90;99.90
52016;DHT22;38032;53.326;6.472;2022-09-09T00:14:16;15.90;99.90
52016;DHT22;38032;53.326;6.472;2022-09-09T00:16:49;15.90;99.90
52016;DHT22;38032;53.326;6.472;2022-09-09T00:19:28;15.90;99.90
52016;DHT22;38032;53.326;6.472;2022-09-09T00:22:14;15.80;99.90
52016;DHT22;38032;53.326;6.472;2022-09-09T00:24:43;15.80;99.90
52016;DHT22;38032;53.326;6.472;2022-09-09T00:30:12;15.80;99.90
52016;DHT22;38032;53.326;6.472;2022-09-09T00:32:37;15.70;99.90
52016;DHT22;38032;53.326;6.472;2022-09-09T00:35:29;15.70;99.90
52016;DHT22;38032;53.326;6.472;2022-09-09T00:38:00;15.70;99.90
52016;DHT22;38032;53.326;6.472;2022-09-09T00:40:33;15.60;99.90
52016;DHT22;38032;53.326;6.472;2022-09-09T00:45:54;15.50;99.90
52016;DHT22;38032;53.326;6.472;2022-09-09T00:48:28;15.50;99.90
52016;DHT22;38032;53.326;6.472;2022-09-09T00:51:00;15.40;99.90
52016;DHT22;38032;53.326;6.472;2022-09-09T00:56:31;15.70;99.90
52016;DHT22;38032;53.326;6.472;2022-09-09T00:59:12;15.40;99.90
52016;DHT22;38032;53.326;6.472;2022-09-09T01:01:42;15.30;99.90
52016;DHT22;38032;53.326;6.472;2022-09-09T01:04:13;15.30;99.90
52016;DHT22;38032;53.326;6.472;2022-09-09T01:06:42;15.20;99.90
52016;DHT22;38032;53.326;6.472;2022-09-09T01:09:17;15.30;99.90
52016;DHT22;38032;53.326;6.472;2022-09-09T01:12:12;15.20;99.90
52016;DHT22;38032;53.326;6.472;2022-09-09T01:14:48;15.20;99.90
52016;DHT22;38032;53.326;6.472;2022-09-09T01:17:23;15.20;99.90
52016;DHT22;38032;53.326;6.472;2022-09-09T01:20:06;15.10;99.90
52016;DHT22;38032;53.326;6.472;2022-09-09T01:22:48;15.10;99.90
52016;DHT22;38032;53.326;6.472;2022-09-09T01:25:29;15.10;99.90
52016;DHT22;38032;53.326;6.472;2022-09-09T01:28:00;15.10;99.90
52016;DHT22;38032;53.326;6.472;2022-09-09T01:30:29;15.10;99.90
52016;DHT22;38032;53.326;6.472;2022-09-09T01:32:57;15.10;99.90
52016;DHT22;38032;53.326;6.472;2022-09-09T01:35:29;15.10;99.90
52016;DHT22;38032;53.326;6.472;2022-09-09T01:37:57;15.10;99.90
52016;DHT22;38032;53.326;6.472;2022-09-09T01:40:24;15.10;99.90
52016;DHT22;38032;53.326;6.472;2022-09-09T01:42:50;15.10;99.90
52016;DHT22;38032;53.326;6.472;2022-09-09T01:45:15;15.10;99.90
52016;DHT22;38032;53.326;6.472;2022-09-09T01:47:41;15.10;99.90
52016;DHT22;38032;53.326;6.472;2022-09-09T01:50:10;15.10;99.90
52016;DHT22;38032;53.326;6.472;2022-09-09T01:52:38;15.10;99.90
52016;DHT22;38032;53.326;6.472;2022-09-09T01:55:05;15.10;99.90
52016;DHT22;38032;53.326;6.472;2022-09-09T01:57:41;15.10;99.90
52016;DHT22;38032;53.326;6.472;2022-09-09T02:00:11;15.10;99.90
52016;DHT22;38032;53.326;6.472;2022-09-09T02:03:05;15.10;99.90
52016;DHT22;38032;53.326;6.472;2022-09-09T02:05:45;15.10;99.90
52016;DHT22;38032;53.326;6.472;2022-09-09T02:08:18;15.00;99.90
52016;DHT22;38032;53.326;6.472;2022-09-09T02:11:03;15.00;99.90
52016;DHT22;38032;53.326;6.472;2022-09-09T02:13:34;15.00;99.90
52016;DHT22;38032;53.326;6.472;2022-09-09T02:18:40;15.00;99.90
52016;DHT22;38032;53.326;6.472;2022-09-09T02:21:08;15.00;99.90
52016;DHT22;38032;53.326;6.472;2022-09-09T02:23:37;15.00;99.90
52016;DHT22;38032;53.326;6.472;2022-09-09T02:26:05;15.00;99.90
52016;DHT22;38032;53.326;6.472;2022-09-09T02:28:34;15.00;99.90
52016;DHT22;38032;53.326;6.472;2022-09-09T02:31:02;15.00;99.90
52016;DHT22;38032;53.326;6.472;2022-09-09T02:33:33;15.00;99.90
52016;DHT22;38032;53.326;6.472;2022-09-09T02:36:01;15.00;99.90
52016;DHT22;38032;53.326;6.472;2022-09-09T02:38:33;15.00;99.90
52016;DHT22;38032;53.326;6.472;2022-09-09T02:41:00;15.10;99.90
52016;DHT22;38032;53.326;6.472;2022-09-09T02:43:33;15.10;99.90
52016;DHT22;38032;53.326;6.472;2022-09-09T02:46:03;15.00;99.90
52016;DHT22;38032;53.326;6.472;2022-09-09T02:51:15;15.00;99.90
52016;DHT22;38032;53.326;6.472;2022-09-09T02:53:59;15.00;99.90
52016;DHT22;38032;53.326;6.472;2022-09-09T02:56:31;15.00;99.90
52016;DHT22;38032;53.326;6.472;2022-09-09T02:59:04;15.00;99.90
52016;DHT22;38032;53.326;6.472;2022-09-09T03:01:30;14.90;99.90
52016;DHT22;38032;53.326;6.472;2022-09-09T03:03:57;14.90;99.90
52016;DHT22;38032;53.326;6.472;2022-09-09T03:06:23;14.90;99.90
52016;DHT22;38032;53.326;6.472;2022-09-09T03:08:48;14.90;99.90
52016;DHT22;38032;53.326;6.472;2022-09-09T03:11:16;14.90;99.90
52016;DHT22;38032;53.326;6.472;2022-09-09T03:13:42;14.90;99.90
52016;DHT22;38032;53.326;6.472;2022-09-09T03:16:08;15.00;99.90
52016;DHT22;38032;53.326;6.472;2022-09-09T03:18:33;15.00;99.90
52016;DHT22;38032;53.326;6.472;2022-09-09T03:21:00;15.00;99.90
52016;DHT22;38032;53.326;6.472;2022-09-09T03:23:26;15.00;99.90
52016;DHT22;38032;53.326;6.472;2022-09-09T03:25:52;15.10;99.90
52016;DHT22;38032;53.326;6.472;2022-09-09T03:28:19;15.10;99.90
52016;DHT22;38032;53.326;6.472;2022-09-09T03:30:46;15.10;99.90
52016;DHT22;38032;53.326;6.472;2022-09-09T03:33:11;15.10;99.90
52016;DHT22;38032;53.326;6.472;2022-09-09T03:35:38;15.20;99.90
52016;DHT22;38032;53.326;6.472;2022-09-09T03:38:04;15.20;99.90
52016;DHT22;38032;53.326;6.472;2022-09-09T03:40:30;15.20;99.90
52016;DHT22;38032;53.326;6.472;2022-09-09T03:42:56;15.20;99.90
52016;DHT22;38032;53.326;6.472;2022-09-09T03:45:22;15.30;99.90
52016;DHT22;38032;53.326;6.472;2022-09-09T03:47:47;15.30;99.90
52016;DHT22;38032;53.326;6.472;2022-09-09T03:50:14;15.30;99.90
52016;DHT22;38032;53.326;6.472;2022-09-09T03:52:41;15.30;99.90
52016;DHT22;38032;53.326;6.472;2022-09-09T03:55:08;15.30;99.90
52016;DHT22;38032;53.326;6.472;2022-09-09T03:57:34;15.30;99.90
52016;DHT22;38032;53.326;6.472;2022-09-09T04:00:04;15.30;99.90
52016;DHT22;38032;53.326;6.472;2022-09-09T04:02:31;15.30;99.90
52016;DHT22;38032;53.326;6.472;2022-09-09T04:04:56;15.30;99.90
52016;DHT22;38032;53.326;6.472;2022-09-09T04:07:22;15.30;99.90
52016;DHT22;38032;53.326;6.472;2022-09-09T04:09:48;15.20;99.90
52016;DHT22;38032;53.326;6.472;2022-09-09T04:12:14;15.20;99.90
52016;DHT22;38032;53.326;6.472;2022-09-09T04:14:39;15.20;99.90
52016;DHT22;38032;53.326;6.472;2022-09-09T04:17:05;15.20;99.90
52016;DHT22;38032;53.326;6.472;2022-09-09T04:19:32;15.20;99.90
52016;DHT22;38032;53.326;6.472;2022-09-09T04:21:58;15.20;99.90
52016;DHT22;38032;53.326;6.472;2022-09-09T04:24:24;15.20;99.90
52016;DHT22;38032;53.326;6.472;2022-09-09T04:26:50;15.20;99.90
52016;DHT22;38032;53.326;6.472;2022-09-09T04:29:16;15.20;99.90
52016;DHT22;38032;53.326;6.472;2022-09-09T04:31:41;15.20;99.90
52016;DHT22;38032;53.326;6.472;2022-09-09T04:34:09;15.20;99.90
52016;DHT22;38032;53.326;6.472;2022-09-09T04:36:35;15.20;99.90
52016;DHT22;38032;53.326;6.472;2022-09-09T04:39:01;15.20;99.90
52016;DHT22;38032;53.326;6.472;2022-09-09T04:41:27;15.20;99.90
52016;DHT22;38032;53.326;6.472;2022-09-09T04:43:53;15.20;99.90
52016;DHT22;38032;53.326;6.472;2022-09-09T04:46:20;15.20;99.90
52016;DHT22;38032;53.326;6.472;2022-09-09T04:48:49;15.20;99.90
52016;DHT22;38032;53.326;6.472;2022-09-09T04:51:15;15.20;99.90
52016;DHT22;38032;53.326;6.472;2022-09-09T04:53:41;15.20;99.90
52016;DHT22;38032;53.326;6.472;2022-09-09T04:56:09;15.30;99.90
52016;DHT22;38032;53.326;6.472;2022-09-09T04:58:37;15.30;99.90
52016;DHT22;38032;53.326;6.472;2022-09-09T05:01:13;15.30;99.90
52016;DHT22;38032;53.326;6.472;2022-09-09T05:03:40;15.30;99.90
52016;DHT22;38032;53.326;6.472;2022-09-09T05:06:09;15.30;99.90
52016;DHT22;38032;53.326;6.472;2022-09-09T05:08:37;15.40;99.90
52016;DHT22;38032;53.326;6.472;2022-09-09T05:11:15;15.40;99.90
52016;DHT22;38032;53.326;6.472;2022-09-09T05:13:42;15.40;99.90
52016;DHT22;38032;53.326;6.472;2022-09-09T05:16:08;15.40;99.90
52016;DHT22;38032;53.326;6.472;2022-09-09T05:18:38;15.50;99.90
52016;DHT22;38032;53.326;6.472;2022-09-09T05:21:04;15.50;99.90
52016;DHT22;38032;53.326;6.472;2022-09-09T05:23:29;15.40;99.90
52016;DHT22;38032;53.326;6.472;2022-09-09T05:25:56;15.50;99.90
52016;DHT22;38032;53.326;6.472;2022-09-09T05:28:24;15.50;99.90
52016;DHT22;38032;53.326;6.472;2022-09-09T05:30:58;15.50;99.90
52016;DHT22;38032;53.326;6.472;2022-09-09T05:33:24;15.40;99.90
52016;DHT22;38032;53.326;6.472;2022-09-09T05:36:00;15.50;99.90
52016;DHT22;38032;53.326;6.472;2022-09-09T05:38:27;15.40;99.90
52016;DHT22;38032;53.326;6.472;2022-09-09T05:40:53;15.50;99.90
52016;DHT22;38032;53.326;6.472;2022-09-09T05:43:19;15.50;99.90
52016;DHT22;38032;53.326;6.472;2022-09-09T05:45:47;15.50;99.90
52016;DHT22;38032;53.326;6.472;2022-09-09T05:48:14;15.40;99.90
52016;DHT22;38032;53.326;6.472;2022-09-09T05:50:41;15.40;99.90
52016;DHT22;38032;53.326;6.472;2022-09-09T05:53:09;15.40;99.90
52016;DHT22;38032;53.326;6.472;2022-09-09T05:55:36;15.40;99.90
52016;DHT22;38032;53.326;6.472;2022-09-09T05:58:02;15.50;99.90
52016;DHT22;38032;53.326;6.472;2022-09-09T06:00:28;15.40;99.90
52016;DHT22;38032;53.326;6.472;2022-09-09T06:02:55;15.50;99.90
52016;DHT22;38032;53.326;6.472;2022-09-09T06:05:20;15.50;99.90
52016;DHT22;38032;53.326;6.472;2022-09-09T06:07:48;15.50;99.90
52016;DHT22;38032;53.326;6.472;2022-09-09T06:10:17;15.50;99.90
52016;DHT22;38032;53.326;6.472;2022-09-09T06:12:43;15.50;99.90
52016;DHT22;38032;53.326;6.472;2022-09-09T06:15:09;15.50;99.90
52016;DHT22;38032;53.326;6.472;2022-09-09T06:17:35;15.50;99.90
52016;DHT22;38032;53.326;6.472;2022-09-09T06:20:00;15.60;99.90
52016;DHT22;38032;53.326;6.472;2022-09-09T06:22:26;15.60;99.90
52016;DHT22;38032;53.326;6.472;2022-09-09T06:24:52;15.60;99.90
52016;DHT22;38032;53.326;6.472;2022-09-09T06:27:19;15.70;99.90
52016;DHT22;38032;53.326;6.472;2022-09-09T06:29:44;15.70;99.90
52016;DHT22;38032;53.326;6.472;2022-09-09T06:32:10;15.80;99.90
52016;DHT22;38032;53.326;6.472;2022-09-09T06:34:36;15.80;99.90
52016;DHT22;38032;53.326;6.472;2022-09-09T06:37:02;15.80;99.90
52016;DHT22;38032;53.326;6.472;2022-09-09T06:39:28;15.90;99.90
52016;DHT22;38032;53.326;6.472;2022-09-09T06:41:54;15.90;99.90
52016;DHT22;38032;53.326;6.472;2022-09-09T06:44:19;16.00;99.90
52016;DHT22;38032;53.326;6.472;2022-09-09T06:46:45;16.00;99.90
52016;DHT22;38032;53.326;6.472;2022-09-09T06:49:13;16.10;99.90
52016;DHT22;38032;53.326;6.472;2022-09-09T06:51:39;16.10;99.90
52016;DHT22;38032;53.326;6.472;2022-09-09T06:54:08;16.10;99.90
52016;DHT22;38032;53.326;6.472;2022-09-09T06:56:37;16.10;99.90
52016;DHT22;38032;53.326;6.472;2022-09-09T06:59:06;16.20;99.90
52016;DHT22;38032;53.326;6.472;2022-09-09T07:01:36;16.20;99.90
52016;DHT22;38032;53.326;6.472;2022-09-09T07:04:03;16.20;99.90
52016;DHT22;38032;53.326;6.472;2022-09-09T07:06:31;16.20;99.90
52016;DHT22;38032;53.326;6.472;2022-09-09T07:08:59;16.30;99.90
52016;DHT22;38032;53.326;6.472;2022-09-09T07:11:30;16.40;99.90
52016;DHT22;38032;53.326;6.472;2022-09-09T07:13:58;16.40;99.90
52016;DHT22;38032;53.326;6.472;2022-09-09T07:16:25;16.50;99.90
52016;DHT22;38032;53.326;6.472;2022-09-09T07:18:53;16.50;99.90
52016;DHT22;38032;53.326;6.472;2022-09-09T07:21:24;16.60;99.90
52016;DHT22;38032;53.326;6.472;2022-09-09T07:23:51;16.60;99.90
52016;DHT22;38032;53.326;6.472;2022-09-09T07:26:19;16.70;99.90
52016;DHT22;38032;53.326;6.472;2022-09-09T07:28:46;16.80;99.90
52016;DHT22;38032;53.326;6.472;2022-09-09T07:31:15;16.80;99.90
52016;DHT22;38032;53.326;6.472;2022-09-09T07:33:42;16.90;99.90
52016;DHT22;38032;53.326;6.472;2022-09-09T07:36:12;16.90;99.90
52016;DHT22;38032;53.326;6.472;2022-09-09T07:38:40;16.90;99.90
52016;DHT22;38032;53.326;6.472;2022-09-09T07:41:08;17.00;99.90
52016;DHT22;38032;53.326;6.472;2022-09-09T07:43:39;17.10;99.90
52016;DHT22;38032;53.326;6.472;2022-09-09T07:46:05;17.10;99.90
52016;DHT22;38032;53.326;6.472;2022-09-09T07:48:32;17.10;99.90
52016;DHT22;38032;53.326;6.472;2022-09-09T07:51:10;17.20;99.90
52016;DHT22;38032;53.326;6.472;2022-09-09T07:53:37;17.20;99.90
52016;DHT22;38032;53.326;6.472;2022-09-09T07:56:05;17.30;99.90
52016;DHT22;38032;53.326;6.472;2022-09-09T07:58:31;17.30;99.90
52016;DHT22;38032;53.326;6.472;2022-09-09T08:00:57;17.40;99.90
52016;DHT22;38032;53.326;6.472;2022-09-09T08:03:23;17.50;99.90
52016;DHT22;38032;53.326;6.472;2022-09-09T08:05:49;17.50;99.90
52016;DHT22;38032;53.326;6.472;2022-09-09T08:08:15;17.60;99.90
52016;DHT22;38032;53.326;6.472;2022-09-09T08:10:42;17.70;99.90
52016;DHT22;38032;53.326;6.472;2022-09-09T08:13:08;17.80;99.90
52016;DHT22;38032;53.326;6.472;2022-09-09T08:15:35;17.80;99.90
52016;DHT22;38032;53.326;6.472;2022-09-09T08:18:00;17.90;99.90
52016;DHT22;38032;53.326;6.472;2022-09-09T08:20:26;17.90;99.90
52016;DHT22;38032;53.326;6.472;2022-09-09T08:22:55;18.00;99.90
52016;DHT22;38032;53.326;6.472;2022-09-09T08:25:21;18.10;99.90
52016;DHT22;38032;53.326;6.472;2022-09-09T08:27:46;18.10;99.90
52016;DHT22;38032;53.326;6.472;2022-09-09T08:30:12;18.20;99.90
52016;DHT22;38032;53.326;6.472;2022-09-09T08:32:39;18.30;99.90
52016;DHT22;38032;53.326;6.472;2022-09-09T08:35:05;18.30;99.90
52016;DHT22;38032;53.326;6.472;2022-09-09T08:37:32;18.40;99.90
52016;DHT22;38032;53.326;6.472;2022-09-09T08:39:57;18.50;99.90
52016;DHT22;38032;53.326;6.472;2022-09-09T08:42:35;18.60;99.90
52016;DHT22;38032;53.326;6.472;2022-09-09T08:45:20;18.60;99.90
52016;DHT22;38032;53.326;6.472;2022-09-09T08:47:53;18.70;99.90
52016;DHT22;38032;53.326;6.472;2022-09-09T08:50:30;18.90;99.90
52016;DHT22;38032;53.326;6.472;2022-09-09T08:53:04;19.00;99.90
52016;DHT22;38032;53.326;6.472;2022-09-09T08:55:52;19.10;99.90
52016;DHT22;38032;53.326;6.472;2022-09-09T08:58:22;19.20;99.90
52016;DHT22;38032;53.326;6.472;2022-09-09T09:01:17;19.30;99.90
52016;DHT22;38032;53.326;6.472;2022-09-09T09:04:03;19.40;99.90
52016;DHT22;38032;53.326;6.472;2022-09-09T09:09:11;19.70;99.90
52016;DHT22;38032;53.326;6.472;2022-09-09T09:11:48;19.90;99.90
52016;DHT22;38032;53.326;6.472;2022-09-09T09:14:19;20.10;99.90
52016;DHT22;38032;53.326;6.472;2022-09-09T09:16:57;20.60;99.90
52016;DHT22;38032;53.326;6.472;2022-09-09T09:19:23;20.50;99.90
52016;DHT22;38032;53.326;6.472;2022-09-09T09:24:20;20.40;99.90
52016;DHT22;38032;53.326;6.472;2022-09-09T09:26:47;20.40;99.90
52016;DHT22;38032;53.326;6.472;2022-09-09T09:29:16;20.10;99.90
52016;DHT22;38032;53.326;6.472;2022-09-09T09:31:47;20.60;99.90
52016;DHT22;38032;53.326;6.472;2022-09-09T09:34:14;20.60;99.90
52016;DHT22;38032;53.326;6.472;2022-09-09T09:36:44;20.60;99.90
52016;DHT22;38032;53.326;6.472;2022-09-09T09:39:23;20.40;99.90
52016;DHT22;38032;53.326;6.472;2022-09-09T09:41:49;20.50;99.90
52016;DHT22;38032;53.326;6.472;2022-09-09T09:44:24;20.40;99.90
52016;DHT22;38032;53.326;6.472;2022-09-09T09:46:50;20.50;99.90
52016;DHT22;38032;53.326;6.472;2022-09-09T09:49:16;20.50;99.90
52016;DHT22;38032;53.326;6.472;2022-09-09T09:51:43;20.60;99.90
52016;DHT22;38032;53.326;6.472;2022-09-09T09:54:27;20.70;99.90
52016;DHT22;38032;53.326;6.472;2022-09-09T09:56:53;20.90;99.90
52016;DHT22;38032;53.326;6.472;2022-09-09T09:59:21;20.60;99.90
52016;DHT22;38032;53.326;6.472;2022-09-09T10:01:47;20.70;99.90
52016;DHT22;38032;53.326;6.472;2022-09-09T10:04:19;20.80;99.90
52016;DHT22;38032;53.326;6.472;2022-09-09T10:06:46;21.30;99.90
52016;DHT22;38032;53.326;6.472;2022-09-09T10:14:36;22.20;99.90
52016;DHT22;38032;53.326;6.472;2022-09-09T10:17:22;22.00;99.90
52016;DHT22;38032;53.326;6.472;2022-09-09T10:20:04;22.00;99.90
52016;DHT22;38032;53.326;6.472;2022-09-09T10:22:44;22.00;99.90
52016;DHT22;38032;53.326;6.472;2022-09-09T10:25:30;22.00;99.90
52016;DHT22;38032;53.326;6.472;2022-09-09T10:28:26;22.00;99.90
52016;DHT22;38032;53.326;6.472;2022-09-09T10:31:01;21.80;99.90
52016;DHT22;38032;53.326;6.472;2022-09-09T10:33:50;21.80;99.90
52016;DHT22;38032;53.326;6.472;2022-09-09T10:36:22;21.80;99.90
52016;DHT22;38032;53.326;6.472;2022-09-09T10:39:05;21.80;99.90
52016;DHT22;38032;53.326;6.472;2022-09-09T10:42:05;21.80;99.90
52016;DHT22;38032;53.326;6.472;2022-09-09T10:47:20;21.80;99.90
52016;DHT22;38032;53.326;6.472;2022-09-09T10:50:04;21.80;99.90
52016;DHT22;38032;53.326;6.472;2022-09-09T10:52:46;21.80;99.90
52016;DHT22;38032;53.326;6.472;2022-09-09T10:55:20;21.80;99.90
52016;DHT22;38032;53.326;6.472;2022-09-09T10:57:49;21.80;99.90
52016;DHT22;38032;53.326;6.472;2022-09-09T11:02:51;21.70;99.90
52016;DHT22;38032;53.326;6.472;2022-09-09T11:05:20;22.10;99.90
52016;DHT22;38032;53.326;6.472;2022-09-09T11:07:56;22.40;99.90
52016;DHT22;38032;53.326;6.472;2022-09-09T11:13:19;23.10;99.90
52016;DHT22;38032;53.326;6.472;2022-09-09T11:15:52;23.40;99.90
52016;DHT22;38032;53.326;6.472;2022-09-09T11:18:21;23.70;99.90
52016;DHT22;38032;53.326;6.472;2022-09-09T11:20:51;24.00;99.90
52016;DHT22;38032;53.326;6.472;2022-09-09T11:23:25;24.30;99.90
52016;DHT22;38032;53.326;6.472;2022-09-09T11:25:56;24.60;99.90
52016;DHT22;38032;53.326;6.472;2022-09-09T11:28:49;24.80;99.90
52016;DHT22;38032;53.326;6.472;2022-09-09T11:31:41;24.90;99.90
52016;DHT22;38032;53.326;6.472;2022-09-09T11:34:26;25.00;99.90
52016;DHT22;38032;53.326;6.472;2022-09-09T11:37:28;25.10;99.90
52016;DHT22;38032;53.326;6.472;2022-09-09T11:40:09;24.90;98.60
52016;DHT22;38032;53.326;6.472;2022-09-09T11:42:39;24.80;99.90
52016;DHT22;38032;53.326;6.472;2022-09-09T11:45:22;24.90;99.90
52016;DHT22;38032;53.326;6.472;2022-09-09T11:47:54;25.10;99.90
52016;DHT22;38032;53.326;6.472;2022-09-09T11:52:47;25.00;99.90
52016;DHT22;38032;53.326;6.472;2022-09-09T11:55:27;25.10;99.60
52016;DHT22;38032;53.326;6.472;2022-09-09T11:57:59;25.20;97.50
52016;DHT22;38032;53.326;6.472;2022-09-09T12:00:34;25.20;98.30
52016;DHT22;38032;53.326;6.472;2022-09-09T12:03:01;25.20;96.90
52016;DHT22;38032;53.326;6.472;2022-09-09T12:05:39;25.10;97.00
52016;DHT22;38032;53.326;6.472;2022-09-09T12:08:09;24.90;96.70
52016;DHT22;38032;53.326;6.472;2022-09-09T12:10:39;24.90;97.00
52016;DHT22;38032;53.326;6.472;2022-09-09T12:13:16;24.80;97.10
52016;DHT22;38032;53.326;6.472;2022-09-09T12:18:23;24.60;97.90
52016;DHT22;38032;53.326;6.472;2022-09-09T12:21:15;24.60;98.50
52016;DHT22;38032;53.326;6.472;2022-09-09T12:23:52;24.60;98.40
52016;DHT22;38032;53.326;6.472;2022-09-09T12:26:29;24.50;98.90
52016;DHT22;38032;53.326;6.472;2022-09-09T12:33:53;24.50;97.70
52016;DHT22;38032;53.326;6.472;2022-09-09T12:36:24;24.50;97.70
52016;DHT22;38032;53.326;6.472;2022-09-09T12:38:50;24.50;97.40
52016;DHT22;38032;53.326;6.472;2022-09-09T12:41:22;24.50;96.90
52016;DHT22;38032;53.326;6.472;2022-09-09T12:43:48;24.40;96.80
52016;DHT22;38032;53.326;6.472;2022-09-09T12:46:31;24.30;97.90
52016;DHT22;38032;53.326;6.472;2022-09-09T12:48:59;24.10;99.90
52016;DHT22;38032;53.326;6.472;2022-09-09T12:51:29;24.20;99.90
52016;DHT22;38032;53.326;6.472;2022-09-09T12:53:56;23.90;97.40
52016;DHT22;38032;53.326;6.472;2022-09-09T12:56:29;23.80;97.50
52016;DHT22;38032;53.326;6.472;2022-09-09T12:58:57;23.60;98.00
52016;DHT22;38032;53.326;6.472;2022-09-09T13:01:26;23.50;98.00
52016;DHT22;38032;53.326;6.472;2022-09-09T13:03:54;23.40;98.40
52016;DHT22;38032;53.326;6.472;2022-09-09T13:06:23;23.40;98.20
52016;DHT22;38032;53.326;6.472;2022-09-09T13:08:51;23.40;98.20
52016;DHT22;38032;53.326;6.472;2022-09-09T13:11:22;23.40;97.50
52016;DHT22;38032;53.326;6.472;2022-09-09T13:13:52;23.40;98.00
52016;DHT22;38032;53.326;6.472;2022-09-09T13:16:22;23.40;99.00
52016;DHT22;38032;53.326;6.472;2022-09-09T13:18:49;23.40;99.00
52016;DHT22;38032;53.326;6.472;2022-09-09T13:21:16;23.50;98.60
52016;DHT22;38032;53.326;6.472;2022-09-09T13:23:48;23.70;98.90
52016;DHT22;38032;53.326;6.472;2022-09-09T13:26:26;23.90;99.90
52016;DHT22;38032;53.326;6.472;2022-09-09T13:28:53;24.00;98.90
52016;DHT22;38032;53.326;6.472;2022-09-09T13:31:23;24.00;97.70
52016;DHT22;38032;53.326;6.472;2022-09-09T13:33:50;24.00;97.30
52016;DHT22;38032;53.326;6.472;2022-09-09T13:36:28;24.10;96.40
52016;DHT22;38032;53.326;6.472;2022-09-09T13:38:56;24.20;96.50
52016;DHT22;38032;53.326;6.472;2022-09-09T13:41:24;24.20;96.20
52016;DHT22;38032;53.326;6.472;2022-09-09T13:43:51;24.20;95.80
52016;DHT22;38032;53.326;6.472;2022-09-09T13:46:36;24.00;94.70
52016;DHT22;38032;53.326;6.472;2022-09-09T13:49:19;24.00;95.30
52016;DHT22;38032;53.326;6.472;2022-09-09T13:51:49;23.60;95.30
52016;DHT22;38032;53.326;6.472;2022-09-09T13:54:17;23.20;96.40
52016;DHT22;38032;53.326;6.472;2022-09-09T13:56:44;23.00;97.30
52016;DHT22;38032;53.326;6.472;2022-09-09T13:59:13;22.70;98.40
52016;DHT22;38032;53.326;6.472;2022-09-09T14:01:39;22.50;99.60
52016;DHT22;38032;53.326;6.472;2022-09-09T14:04:06;22.40;99.50
52016;DHT22;38032;53.326;6.472;2022-09-09T14:06:32;22.30;99.90
52016;DHT22;38032;53.326;6.472;2022-09-09T14:09:01;22.10;99.90
52016;DHT22;38032;53.326;6.472;2022-09-09T14:11:27;21.80;99.90
52016;DHT22;38032;53.326;6.472;2022-09-09T14:13:53;21.50;99.90
52016;DHT22;38032;53.326;6.472;2022-09-09T14:16:18;21.20;99.90
52016;DHT22;38032;53.326;6.472;2022-09-09T14:18:45;21.00;99.90
52016;DHT22;38032;53.326;6.472;2022-09-09T14:21:11;20.90;99.90
52016;DHT22;38032;53.326;6.472;2022-09-09T14:23:38;20.60;99.90
52016;DHT22;38032;53.326;6.472;2022-09-09T14:26:05;20.70;99.90
52016;DHT22;38032;53.326;6.472;2022-09-09T14:28:31;20.90;99.90
52016;DHT22;38032;53.326;6.472;2022-09-09T14:31:00;21.10;99.90
52016;DHT22;38032;53.326;6.472;2022-09-09T14:33:27;21.20;99.90
52016;DHT22;38032;53.326;6.472;2022-09-09T14:35:57;21.30;99.90
52016;DHT22;38032;53.326;6.472;2022-09-09T14:38:23;21.40;99.90
52016;DHT22;38032;53.326;6.472;2022-09-09T14:40:49;21.40;99.90
52016;DHT22;38032;53.326;6.472;2022-09-09T14:43:15;21.40;99.90
52016;DHT22;38032;53.326;6.472;2022-09-09T14:45:41;21.40;99.90
52016;DHT22;38032;53.326;6.472;2022-09-09T14:48:07;21.40;99.90
52016;DHT22;38032;53.326;6.472;2022-09-09T14:50:33;21.30;99.90
52016;DHT22;38032;53.326;6.472;2022-09-09T14:53:00;21.30;99.90
52016;DHT22;38032;53.326;6.472;2022-09-09T14:55:26;21.30;99.90
52016;DHT22;38032;53.326;6.472;2022-09-09T14:57:54;21.30;99.90
52016;DHT22;38032;53.326;6.472;2022-09-09T15:00:20;21.30;99.90
52016;DHT22;38032;53.326;6.472;2022-09-09T15:02:45;21.30;99.90
52016;DHT22;38032;53.326;6.472;2022-09-09T15:05:11;21.30;99.90
52016;DHT22;38032;53.326;6.472;2022-09-09T15:07:37;21.30;99.90
52016;DHT22;38032;53.326;6.472;2022-09-09T15:10:04;21.30;99.90
52016;DHT22;38032;53.326;6.472;2022-09-09T15:12:30;21.30;99.90
52016;DHT22;38032;53.326;6.472;2022-09-09T15:14:56;21.30;99.90
52016;DHT22;38032;53.326;6.472;2022-09-09T15:17:21;21.20;99.90
52016;DHT22;38032;53.326;6.472;2022-09-09T15:19:47;21.20;99.90
52016;DHT22;38032;53.326;6.472;2022-09-09T15:22:15;21.20;99.90
52016;DHT22;38032;53.326;6.472;2022-09-09T15:24:41;21.10;99.90
52016;DHT22;38032;53.326;6.472;2022-09-09T15:27:07;21.10;99.90
52016;DHT22;38032;53.326;6.472;2022-09-09T15:29:32;21.10;99.90
52016;DHT22;38032;53.326;6.472;2022-09-09T15:31:58;21.10;99.90
52016;DHT22;38032;53.326;6.472;2022-09-09T15:34:24;21.00;99.90
52016;DHT22;38032;53.326;6.472;2022-09-09T15:36:51;21.00;99.90
52016;DHT22;38032;53.326;6.472;2022-09-09T15:39:17;21.00;99.90
52016;DHT22;38032;53.326;6.472;2022-09-09T15:41:45;21.00;99.90
52016;DHT22;38032;53.326;6.472;2022-09-09T15:44:12;21.10;99.90
52016;DHT22;38032;53.326;6.472;2022-09-09T15:46:39;21.10;99.90
52016;DHT22;38032;53.326;6.472;2022-09-09T15:49:09;21.10;99.90
52016;DHT22;38032;53.326;6.472;2022-09-09T15:51:37;21.10;99.90
52016;DHT22;38032;53.326;6.472;2022-09-09T15:54:04;21.00;99.90
52016;DHT22;38032;53.326;6.472;2022-09-09T15:56:30;21.00;99.90
52016;DHT22;38032;53.326;6.472;2022-09-09T15:58:57;21.00;99.90
52016;DHT22;38032;53.326;6.472;2022-09-09T16:01:25;21.00;99.90
52016;DHT22;38032;53.326;6.472;2022-09-09T16:03:52;20.90;99.90
52016;DHT22;38032;53.326;6.472;2022-09-09T16:06:20;20.90;99.90
52016;DHT22;38032;53.326;6.472;2022-09-09T16:08:49;20.90;99.90
52016;DHT22;38032;53.326;6.472;2022-09-09T16:11:19;20.90;99.90
52016;DHT22;38032;53.326;6.472;2022-09-09T16:13:48;20.80;99.90
52016;DHT22;38032;53.326;6.472;2022-09-09T16:16:15;20.80;99.90
52016;DHT22;38032;53.326;6.472;2022-09-09T16:18:45;20.70;99.90
52016;DHT22;38032;53.326;6.472;2022-09-09T16:21:20;20.70;99.90
52016;DHT22;38032;53.326;6.472;2022-09-09T16:23:46;20.70;99.90
52016;DHT22;38032;53.326;6.472;2022-09-09T16:26:15;20.60;99.90
52016;DHT22;38032;53.326;6.472;2022-09-09T16:28:42;20.50;99.90
52016;DHT22;38032;53.326;6.472;2022-09-09T16:31:10;20.50;99.90